Time;durP1;ratioP1;P1;durP2;ratioP2;P2;SDS_P1;SDS_P2;PMS_P1;PMS_P2;Temp;Humidity;BMP_temperature;BMP_pressure;BME280_temperature;BME280_humidity;BME280_pressure;Samples;Min_cycle;Max_cycle;Signal;HPM_P1;HPM_P2
2023/04/21 00:02:09;;;;;;;8.53;7.73;;;;;;;6.50;100.00;95965.16;5005638;28;105899;-62
2023/04/21 00:04:38;;;;;;;8.47;7.67;;;;;;;6.46;100.00;95961.38;5001356;28;101939;-62
2023/04/21 00:07:05;;;;;;;8.83;7.83;;;;;;;6.47;100.00;95961.16;4998579;28;103802;-62
2023/04/21 00:09:32;;;;;;;8.53;7.73;;;;;;;6.50;100.00;95951.97;4997799;28;105546;-62
2023/04/21 00:11:59;;;;;;;8.33;7.17;;;;;;;6.45;100.00;95954.50;4998653;28;102143;-62
2023/04/21 00:14:25;;;;;;;8.73;7.87;;;;;;;6.30;100.00;95959.47;5011698;28;105480;-62
2023/04/21 00:16:52;;;;;;;8.60;7.80;;;;;;;6.31;100.00;95959.25;5008292;28;103819;-62
2023/04/21 00:19:22;;;;;;;8.30;7.53;;;;;;;6.35;100.00;95964.88;5008554;28;101857;-62
2023/04/21 00:21:49;;;;;;;9.37;8.20;;;;;;;6.17;100.00;95957.91;5002571;28;105440;-62
2023/04/21 00:24:20;;;;;;;8.83;7.67;;;;;;;6.19;100.00;95953.22;5010810;28;102184;-62
2023/04/21 00:26:47;;;;;;;8.63;7.83;;;;;;;6.15;100.00;95951.25;4990404;28;105193;-62
2023/04/21 00:29:13;;;;;;;9.23;8.23;;;;;;;6.13;100.00;95948.06;5008042;28;105660;-62
2023/04/21 00:31:40;;;;;;;9.10;8.17;;;;;;;6.20;100.00;95951.34;4991819;28;102422;-62
2023/04/21 00:37:31;;;;;;;9.03;8.13;;;;;;;5.97;100.00;95946.94;4992184;28;105418;-62
2023/04/21 00:39:58;;;;;;;9.73;8.73;;;;;;;5.91;100.00;95954.97;5009994;28;101819;-62
2023/04/21 00:42:25;;;;;;;9.40;8.43;;;;;;;5.97;100.00;95952.22;5001782;28;102476;-62
2023/04/21 00:44:52;;;;;;;9.60;8.70;;;;;;;5.97;100.00;95949.59;5011098;28;105808;-62
2023/04/21 00:47:20;;;;;;;9.27;8.37;;;;;;;5.97;100.00;95959.31;4999085;28;105189;-62
2023/04/21 00:49:50;;;;;;;9.40;8.50;;;;;;;5.99;100.00;95955.41;5014284;28;106250;-62
2023/04/21 00:52:18;;;;;;;9.50;8.57;;;;;;;6.03;100.00;95955.75;5002934;28;102149;-62
2023/04/21 00:55:11;;;;;;;9.13;8.10;;;;;;;5.88;100.00;95950.97;4997016;28;105446;-62
2023/04/21 00:57:38;;;;;;;8.97;8.00;;;;;;;5.81;100.00;95949.47;5000490;28;107031;-62
2023/04/21 01:00:07;;;;;;;8.80;8.00;;;;;;;5.73;100.00;95944.53;5000002;28;102018;-62
2023/04/21 01:02:36;;;;;;;9.33;8.43;;;;;;;5.67;100.00;95940.19;5005546;28;101993;-62
2023/04/21 01:05:17;;;;;;;9.00;8.10;;;;;;;5.68;100.00;95937.28;4989961;28;105314;-62
2023/04/21 01:07:44;;;;;;;8.87;8.00;;;;;;;5.59;100.00;95933.41;5017967;28;101977;-62
2023/04/21 01:10:13;;;;;;;11.03;8.20;;;;;;;5.58;100.00;95928.38;5010826;28;105579;-62
2023/04/21 01:12:44;;;;;;;9.27;8.37;;;;;;;5.53;100.00;95928.25;5012471;28;101878;-62
2023/04/21 01:15:14;;;;;;;8.80;8.00;;;;;;;5.52;100.00;95929.28;4990705;28;105379;-62
2023/04/21 01:17:41;;;;;;;9.07;8.10;;;;;;;5.46;100.00;95933.63;5007839;28;105269;-62
2023/04/21 01:20:11;;;;;;;9.97;9.07;;;;;;;5.52;100.00;95932.72;5005754;28;102108;-62
2023/04/21 01:22:41;;;;;;;9.50;8.50;;;;;;;5.55;100.00;95929.63;4999494;28;103867;-62
2023/04/21 01:25:09;;;;;;;8.93;8.03;;;;;;;5.44;100.00;95927.78;5000747;28;102672;-62
2023/04/21 01:27:36;;;;;;;9.43;8.33;;;;;;;5.57;100.00;95929.41;5000913;28;102404;-62
2023/04/21 01:30:05;;;;;;;8.53;7.63;;;;;;;5.56;100.00;95933.09;4982780;28;106675;-62
2023/04/21 01:32:32;;;;;;;8.63;7.73;;;;;;;5.49;100.00;95930.56;4994514;28;102170;-62
2023/04/21 01:35:07;;;;;;;8.83;7.93;;;;;;;5.36;100.00;95924.69;5010671;28;105138;-62
2023/04/21 01:37:34;;;;;;;9.03;8.17;;;;;;;5.46;100.00;95928.34;4995821;28;105278;-62
2023/04/21 01:40:06;;;;;;;8.13;7.23;;;;;;;5.51;100.00;95931.13;5001843;27;101964;-62
2023/04/21 01:42:34;;;;;;;8.27;7.50;;;;;;;5.50;100.00;95928.69;5007602;28;102905;-62
2023/04/21 01:45:13;;;;;;;9.20;8.20;;;;;;;5.43;100.00;95938.56;5007427;28;103847;-62
2023/04/21 01:47:40;;;;;;;9.07;8.17;;;;;;;5.46;100.00;95935.47;5002006;28;102133;-62
2023/04/21 01:50:08;;;;;;;9.07;8.20;;;;;;;5.43;100.00;95936.75;5006734;28;104945;-62
2023/04/21 01:52:35;;;;;;;9.37;8.47;;;;;;;5.34;100.00;95938.09;4995945;28;102076;-62
2023/04/21 01:55:17;;;;;;;9.33;8.43;;;;;;;5.38;100.00;95933.16;5002883;28;104759;-62
2023/04/21 01:57:44;;;;;;;8.87;7.97;;;;;;;5.39;100.00;95930.31;5008393;28;105636;-62
2023/04/21 02:00:13;;;;;;;9.33;8.43;;;;;;;5.39;100.00;95926.88;5007714;28;102128;-62
2023/04/21 02:02:45;;;;;;;9.93;8.93;;;;;;;5.48;100.00;95931.59;4995677;28;105236;-62
2023/04/21 02:05:14;;;;;;;10.53;9.23;;;;;;;5.49;100.00;95924.47;5000739;28;105340;-62
2023/04/21 02:07:41;;;;;;;9.33;8.43;;;;;;;5.51;100.00;95927.69;5011202;28;101956;-62
2023/04/21 02:10:09;;;;;;;10.57;8.60;;;;;;;5.54;100.00;95927.22;5013867;28;105325;-62
2023/04/21 02:12:38;;;;;;;9.33;8.33;;;;;;;5.49;100.00;95927.91;5018586;28;105628;-62
2023/04/21 02:15:07;;;;;;;9.57;8.33;;;;;;;5.48;100.00;95930.78;5011229;28;105120;-62
2023/04/21 02:17:35;;;;;;;9.43;8.43;;;;;;;5.42;100.00;95929.88;5008726;28;105117;-62
2023/04/21 02:20:02;;;;;;;9.23;8.33;;;;;;;5.41;100.00;95935.38;5019417;28;102086;-62
2023/04/21 02:22:28;;;;;;;8.53;7.43;;;;;;;5.46;100.00;95946.03;5007500;28;103499;-63
2023/04/21 02:24:56;;;;;;;8.97;8.07;;;;;;;5.41;100.00;95944.06;4993768;28;105635;-62
2023/04/21 02:27:23;;;;;;;10.00;9.00;;;;;;;5.38;100.00;95949.00;4999391;28;101893;-62
2023/04/21 02:29:53;;;;;;;9.87;8.97;;;;;;;5.46;100.00;95943.41;4993726;28;103874;-62
2023/04/21 02:32:19;;;;;;;10.63;9.53;;;;;;;5.46;100.00;95943.41;4991340;28;104290;-62
2023/04/21 02:35:09;;;;;;;9.47;8.47;;;;;;;5.47;100.00;95950.28;5014690;28;102005;-62
2023/04/21 02:37:37;;;;;;;10.43;9.27;;;;;;;5.49;100.00;95943.75;5009152;28;104301;-62
2023/04/21 02:40:05;;;;;;;10.43;8.87;;;;;;;5.52;100.00;95943.25;4999430;28;101978;-62
2023/04/21 02:42:33;;;;;;;9.03;8.13;;;;;;;5.55;100.00;95934.09;5001376;28;103709;-62
2023/04/21 02:45:06;;;;;;;9.77;8.63;;;;;;;5.55;100.00;95931.44;5001980;28;105410;-62
2023/04/21 02:47:33;;;;;;;10.23;8.80;;;;;;;5.59;100.00;95930.78;5000850;28;101825;-62
2023/04/21 02:50:00;;;;;;;9.70;8.80;;;;;;;5.54;100.00;95925.41;5010250;28;102364;-62
2023/04/21 02:52:27;;;;;;;10.23;8.37;;;;;;;5.59;100.00;95930.78;5005542;28;105801;-62
2023/04/21 02:54:54;;;;;;;10.97;8.57;;;;;;;5.57;100.00;95930.19;4998535;28;103323;-62
2023/04/21 02:57:21;;;;;;;9.23;8.33;;;;;;;5.53;100.00;95933.53;5012200;28;103454;-62
2023/04/21 02:59:48;;;;;;;9.47;8.47;;;;;;;5.50;100.00;95933.97;5002942;28;102229;-62
2023/04/21 03:02:16;;;;;;;11.13;9.57;;;;;;;5.47;100.00;95942.34;5005285;28;104906;-62
2023/04/21 03:04:50;;;;;;;10.70;9.37;;;;;;;5.47;100.00;95939.72;5010142;28;105593;-62
2023/04/21 03:07:17;;;;;;;10.60;9.50;;;;;;;5.49;100.00;95943.75;5010201;28;102170;-62
2023/04/21 03:09:44;;;;;;;10.73;9.70;;;;;;;5.51;100.00;95936.38;5013976;28;105354;-62
2023/04/21 03:12:11;;;;;;;10.50;9.40;;;;;;;5.49;100.00;95946.38;4999492;28;106622;-62
2023/04/21 03:14:38;;;;;;;11.93;9.40;;;;;;;5.49;100.00;95942.91;5010890;28;102253;-62
2023/04/21 03:17:05;;;;;;;10.70;9.70;;;;;;;5.50;100.00;95944.53;5003743;28;105622;-62
2023/04/21 03:19:33;;;;;;;10.17;8.93;;;;;;;5.41;100.00;95953.81;5017139;28;105412;-62
2023/04/21 03:22:00;;;;;;;9.87;8.87;;;;;;;5.39;100.00;95953.22;4989640;28;105748;-62
2023/04/21 03:24:27;;;;;;;11.23;9.10;;;;;;;5.39;100.00;95955.88;5000505;28;103846;-62
2023/04/21 03:26:55;;;;;;;9.57;8.63;;;;;;;5.36;100.00;95951.84;4997991;28;101979;-62
2023/04/21 03:29:22;;;;;;;9.97;8.93;;;;;;;5.29;100.00;95947.75;5002570;28;105744;-62
2023/04/21 03:31:49;;;;;;;9.60;8.67;;;;;;;5.35;100.00;95946.81;5001965;28;102497;-62
2023/04/21 03:34:23;;;;;;;9.40;8.50;;;;;;;5.41;100.00;95944.06;5010474;28;101943;-62
2023/04/21 03:36:51;;;;;;;9.90;8.60;;;;;;;5.46;100.00;95944.19;5000657;28;105194;-62
2023/04/21 03:39:18;;;;;;;9.07;8.17;;;;;;;5.49;100.00;95948.19;5003418;28;105375;-62
2023/04/21 03:41:45;;;;;;;10.23;9.23;;;;;;;5.56;100.00;95938.34;5001872;28;101992;-62
2023/04/21 03:44:44;;;;;;;8.87;7.97;;;;;;;5.54;100.00;95948.31;4999725;28;105954;-62
2023/04/21 03:47:11;;;;;;;9.60;8.13;;;;;;;5.49;100.00;95942.91;5000815;28;101805;-62
2023/04/21 03:49:38;;;;;;;9.90;8.03;;;;;;;5.44;100.00;95945.44;4997976;28;103659;-62
2023/04/21 03:52:07;;;;;;;9.90;8.90;;;;;;;5.41;100.00;95940.63;4998960;28;102651;-62
2023/04/21 03:54:45;;;;;;;10.33;8.70;;;;;;;5.37;100.00;95936.84;5010736;28;101901;-62
2023/04/21 03:57:12;;;;;;;13.10;11.73;;;;;;;5.38;100.00;95925.25;5011945;28;102307;-62
2023/04/21 03:59:39;;;;;;;12.33;11.03;;;;;;;5.39;100.00;95929.50;5000632;28;102580;-62
2023/04/21 04:02:06;;;;;;;10.10;9.10;;;;;;;5.35;100.00;95931.00;4996665;28;101854;-62
2023/04/21 04:04:49;;;;;;;9.30;8.40;;;;;;;5.31;100.00;95924.59;5015017;28;102720;-62
2023/04/21 04:07:18;;;;;;;9.93;8.73;;;;;;;5.41;100.00;95920.34;4997737;28;101871;-62
2023/04/21 04:09:45;;;;;;;12.27;8.40;;;;;;;5.42;100.00;95934.34;5004654;28;104053;-62
2023/04/21 04:12:11;;;;;;;9.90;8.90;;;;;;;5.41;100.00;95938.00;5008228;28;105309;-62
2023/04/21 04:15:20;;;;;;;10.67;9.57;;;;;;;5.52;100.00;95937.19;5009389;28;103534;-62
2023/04/21 04:17:47;;;;;;;10.87;9.30;;;;;;;5.48;100.00;95936.03;5004729;28;104992;-62
2023/04/21 04:20:14;;;;;;;12.60;10.83;;;;;;;5.47;100.00;95934.44;4995448;28;105662;-62
2023/04/21 04:22:43;;;;;;;12.87;11.37;;;;;;;5.45;100.00;95925.97;4998471;28;101900;-62
2023/04/21 04:25:13;;;;;;;13.57;12.17;;;;;;;5.54;100.00;95924.56;4997229;28;105159;-62
2023/04/21 04:27:43;;;;;;;12.37;11.07;;;;;;;5.62;100.00;95929.53;4990796;28;101733;-62
2023/04/21 04:30:10;;;;;;;12.47;11.27;;;;;;;5.69;100.00;95927.56;4999895;28;104762;-62
2023/04/21 04:32:38;;;;;;;13.07;11.67;;;;;;;5.70;100.00;95926.50;4999870;28;105003;-62
2023/04/21 04:35:06;;;;;;;14.30;12.20;;;;;;;5.71;100.00;95920.19;5003180;28;101951;-62
2023/04/21 04:37:35;;;;;;;13.13;11.30;;;;;;;5.69;100.00;95917.00;5007928;28;102401;-62
2023/04/21 04:40:05;;;;;;;12.67;11.27;;;;;;;5.64;100.00;95924.81;5005880;28;105890;-62
2023/04/21 04:42:33;;;;;;;12.30;11.00;;;;;;;5.69;100.00;95922.28;4997673;28;102009;-62
2023/04/21 04:45:00;;;;;;;12.13;10.83;;;;;;;5.77;100.00;95929.81;5000127;28;105325;-62
2023/04/21 04:47:27;;;;;;;14.23;11.10;;;;;;;5.78;100.00;95931.47;5003279;28;102887;-62
2023/04/21 04:49:54;;;;;;;12.87;11.13;;;;;;;5.81;100.00;95925.72;5005910;28;102338;-62
2023/04/21 04:52:21;;;;;;;12.63;10.37;;;;;;;5.82;100.00;95928.16;4995599;28;104245;-62
2023/04/21 04:55:37;;;;;;;12.67;11.37;;;;;;;5.86;100.00;95926.66;5008239;28;102604;-62
2023/04/21 04:58:05;;;;;;;11.40;10.13;;;;;;;5.75;100.00;95922.16;4991032;28;103872;-62
2023/04/21 05:00:32;;;;;;;12.43;11.13;;;;;;;5.76;100.00;95913.22;4994214;28;102683;-62
2023/04/21 05:02:59;;;;;;;14.07;11.37;;;;;;;5.81;100.00;95915.19;4995376;28;102258;-62
2023/04/21 05:05:26;;;;;;;14.27;12.77;;;;;;;5.88;100.00;95915.84;4988076;28;104919;-63
2023/04/21 05:07:54;;;;;;;14.13;12.00;;;;;;;5.97;100.00;95917.09;4996919;28;103212;-62
2023/04/21 05:10:21;;;;;;;14.17;12.50;;;;;;;6.06;100.00;95913.06;4994986;28;102326;-62
2023/04/21 05:12:48;;;;;;;14.30;12.80;;;;;;;6.14;100.00;95921.44;4992217;28;105370;-63
2023/04/21 05:15:27;;;;;;;15.50;12.10;;;;;;;6.12;100.00;95920.06;5004822;28;101869;-62
2023/04/21 05:17:54;;;;;;;13.50;12.10;;;;;;;6.17;100.00;95920.16;5000315;28;105598;-62
2023/04/21 05:20:21;;;;;;;18.37;13.43;;;;;;;6.27;100.00;95926.44;5002271;27;102472;-62
2023/04/21 05:22:48;;;;;;;15.57;13.27;;;;;;;6.28;100.00;95922.75;4996225;28;101853;-62
2023/04/21 05:25:16;;;;;;;15.80;13.80;;;;;;;6.28;100.00;95922.75;5010780;28;104776;-62
2023/04/21 05:27:43;;;;;;;17.30;15.37;;;;;;;6.35;100.00;95930.53;5002589;28;105159;-63
2023/04/21 05:30:11;;;;;;;16.10;14.40;;;;;;;6.41;100.00;95929.59;4999135;28;101868;-62
2023/04/21 05:32:39;;;;;;;20.23;15.97;;;;;;;6.35;100.00;95933.19;5009071;28;102361;-62
2023/04/21 05:35:11;;;;;;;19.97;16.47;;;;;;;6.46;100.00;95933.16;5002587;28;101914;-62
2023/04/21 05:37:38;;;;;;;17.93;15.93;;;;;;;6.50;100.00;95936.91;4999182;28;102878;-62
2023/04/21 05:40:06;;;;;;;19.23;16.57;;;;;;;6.54;100.00;95942.53;5000644;28;102746;-63
2023/04/21 05:42:33;;;;;;;21.47;16.57;;;;;;;6.59;100.00;95937.31;4996854;28;101744;-63
2023/04/21 05:45:23;;;;;;;18.90;15.83;;;;;;;6.78;100.00;95944.84;5010660;28;105684;-62
2023/04/21 05:47:51;;;;;;;18.27;16.33;;;;;;;6.91;100.00;95943.72;5004576;28;105514;-62
2023/04/21 05:50:18;;;;;;;20.67;17.43;;;;;;;6.92;100.00;95935.56;5002252;28;101861;-62
2023/04/21 05:52:45;;;;;;;19.13;14.83;;;;;;;7.01;100.00;95938.63;5002858;28;104772;-62
2023/04/21 05:55:12;;;;;;;16.90;14.23;;;;;;;7.07;100.00;95943.75;5010537;28;105224;-63
2023/04/21 05:57:39;;;;;;;15.60;13.73;;;;;;;7.01;100.00;95938.63;5010562;28;105316;-62
2023/04/21 06:00:07;;;;;;;16.27;14.53;;;;;;;7.10;100.00;95943.25;5001926;28;105565;-62
2023/04/21 06:02:34;;;;;;;16.40;14.37;;;;;;;7.10;100.00;95937.19;4992894;28;101929;-62
2023/04/21 06:05:30;;;;;;;17.57;14.97;;;;;;;7.13;100.00;95932.22;5009232;28;102661;-62
2023/04/21 06:07:57;;;;;;;16.43;14.73;;;;;;;7.27;100.00;95932.72;5001286;28;105167;-62
2023/04/21 06:10:24;;;;;;;17.17;15.37;;;;;;;7.49;100.00;95925.66;5003210;28;102898;-62
2023/04/21 06:12:51;;;;;;;18.47;15.53;;;;;;;7.49;100.00;95931.75;4993289;28;103647;-62
2023/04/21 06:15:17;;;;;;;16.37;14.67;;;;;;;7.62;100.00;95928.75;4993171;28;105834;-62
2023/04/21 06:17:44;;;;;;;16.13;14.43;;;;;;;7.78;100.00;95929.75;5003679;28;102453;-62
2023/04/21 06:20:12;;;;;;;18.47;15.70;;;;;;;7.82;100.00;95929.06;4995255;27;103092;-62
2023/04/21 06:22:40;;;;;;;15.93;14.17;;;;;;;8.06;100.00;95916.38;4999691;28;101889;-63
2023/04/21 06:25:09;;;;;;;17.83;14.50;;;;;;;8.23;100.00;95920.59;5004511;28;103564;-62
2023/04/21 06:27:36;;;;;;;15.90;14.17;;;;;;;8.50;100.00;95918.00;5008529;28;102553;-63
2023/04/21 06:30:03;;;;;;;17.03;14.87;;;;;;;8.64;100.00;95914.72;5007272;28;101950;-63
2023/04/21 06:32:30;;;;;;;16.07;14.37;;;;;;;8.52;100.00;95915.91;5011203;28;102360;-63
2023/04/21 06:38:25;;;;;;;15.83;13.90;;;;;;;8.84;100.00;95914.13;5016640;28;101965;-63
2023/04/21 06:40:52;;;;;;;15.87;13.67;;;;;;;8.71;100.00;95909.19;5008989;28;105834;-63
2023/04/21 06:43:27;;;;;;;14.57;13.03;;;;;;;8.86;100.00;95912.00;5010001;28;102004;-63
2023/04/21 06:45:54;;;;;;;14.07;12.57;;;;;;;8.98;100.00;95910.81;5011418;28;102550;-63
2023/04/21 06:48:21;;;;;;;15.90;13.40;;;;;;;9.17;100.00;95911.25;5009012;28;105280;-64
2023/04/21 06:50:48;;;;;;;17.37;13.80;;;;;;;9.10;100.00;95916.75;5018069;28;102059;-64
2023/04/21 06:53:16;;;;;;;14.97;12.70;;;;;;;8.92;100.00;95911.81;5021044;27;104144;-64
2023/04/21 06:55:45;;;;;;;15.63;13.30;;;;;;;8.97;100.00;95916.34;5011956;28;104939;-62
2023/04/21 06:58:11;;;;;;;12.80;11.20;;;;;;;8.56;100.00;95917.03;5000898;28;102016;-65
2023/04/21 07:00:38;;;;;;;14.53;12.83;;;;;;;8.27;100.00;95912.97;5015745;28;104931;-63
2023/04/21 07:03:24;;;;;;;13.30;11.60;;;;;;;8.06;100.00;95906.59;5009452;28;101832;-63
2023/04/21 07:05:51;;;;;;;15.43;12.23;;;;;;;8.05;100.00;95915.59;4991407;28;105254;-63
2023/04/21 07:08:18;;;;;;;13.17;11.70;;;;;;;8.21;100.00;95916.59;4996401;28;105390;-63
2023/04/21 07:10:46;;;;;;;13.00;11.60;;;;;;;8.38;100.00;95919.97;5001528;28;101938;-63
2023/04/21 07:13:16;;;;;;;13.30;11.70;;;;;;;8.59;100.00;95916.50;4991301;28;105438;-63
2023/04/21 07:15:44;;;;;;;13.80;12.37;;;;;;;8.93;100.00;95907.28;4994139;28;105014;-63
2023/04/21 07:18:11;;;;;;;14.40;12.90;;;;;;;9.40;100.00;95911.69;5009228;28;102032;-63
2023/04/21 07:20:38;;;;;;;13.77;12.33;;;;;;;9.59;100.00;95901.47;4991094;28;104434;-63
2023/04/21 07:23:05;;;;;;;13.10;11.70;;;;;;;9.92;100.00;95906.47;4998910;28;105271;-63
2023/04/21 07:25:32;;;;;;;14.20;12.63;;;;;;;10.15;100.00;95906.06;5016151;28;105586;-63
2023/04/21 07:28:01;;;;;;;15.60;13.40;;;;;;;10.45;100.00;95898.19;5007849;28;105217;-63
2023/04/21 07:30:29;;;;;;;14.03;12.20;;;;;;;10.68;100.00;95893.22;5005062;28;101809;-70
2023/04/21 07:32:57;;;;;;;12.93;11.67;;;;;;;10.79;100.00;95886.09;5001337;28;103811;-62
2023/04/21 07:35:24;;;;;;;12.67;11.20;;;;;;;11.03;100.00;95890.63;4999158;28;105371;-63
2023/04/21 07:37:51;;;;;;;12.83;11.53;;;;;;;11.25;100.00;95895.69;4983440;28;102556;-63
2023/04/21 07:40:18;;;;;;;12.03;10.83;;;;;;;11.20;100.00;95888.50;5006623;28;104927;-63
2023/04/21 07:42:45;;;;;;;11.73;10.53;;;;;;;11.61;100.00;95894.66;5009286;28;105369;-63
2023/04/21 07:45:33;;;;;;;11.33;10.07;;;;;;;11.71;100.00;95894.63;5016922;27;102019;-63
2023/04/21 07:48:00;;;;;;;10.93;9.83;;;;;;;11.84;100.00;95894.06;4998657;27;102753;-63
2023/04/21 07:50:28;;;;;;;11.23;10.10;;;;;;;11.45;100.00;95898.34;5010233;28;101869;-63
2023/04/21 07:52:54;;;;;;;10.57;9.53;;;;;;;11.82;100.00;95904.22;5009247;28;105301;-63
2023/04/21 07:55:21;;;;;;;10.37;9.27;;;;;;;12.22;100.00;95896.88;5010709;28;102534;-62
2023/04/21 07:57:48;;;;;;;10.33;9.33;;;;;;;12.44;100.00;95896.53;5017472;28;102179;-63
2023/04/21 08:00:16;;;;;;;10.03;9.03;;;;;;;12.55;100.00;95892.75;5028516;28;105238;-63
2023/04/21 08:02:44;;;;;;;9.23;8.40;;;;;;;12.51;100.00;95889.84;5011837;27;102585;-63
2023/04/21 08:08:34;;;;;;;8.53;7.63;;;;;;;13.33;100.00;95891.75;4997010;28;105152;-63
2023/04/21 08:11:01;;;;;;;9.43;8.37;;;;;;;13.02;100.00;95895.72;5017862;28;103220;-62
2023/04/21 08:13:29;;;;;;;9.30;7.47;;;;;;;13.29;100.00;95896.03;5012663;28;104978;-61
2023/04/21 08:15:55;;;;;;;8.30;7.50;;;;;;;13.59;100.00;95896.63;5023178;28;105138;-62
2023/04/21 08:18:24;;;;;;;8.27;7.47;;;;;;;13.20;100.00;95882.50;4992642;28;102140;-62
2023/04/21 08:20:52;;;;;;;8.90;8.00;;;;;;;12.63;100.00;95894.84;5006547;28;105181;-62
2023/04/21 08:23:19;;;;;;;7.93;7.13;;;;;;;12.64;100.00;95893.78;5009935;28;102602;-62
2023/04/21 08:25:46;;;;;;;8.10;7.13;;;;;;;13.14;100.00;95888.16;5009852;28;102038;-63
2023/04/21 08:28:14;;;;;;;7.93;7.20;;;;;;;13.58;100.00;95888.88;5005827;28;102336;-62
2023/04/21 08:30:41;;;;;;;7.50;6.90;;;;;;;13.56;100.00;95883.81;5010886;28;101845;-62
2023/04/21 08:33:47;;;;;;;7.60;6.90;;;;;;;13.49;100.00;95885.19;5011241;28;102561;-62
2023/04/21 08:36:13;;;;;;;6.70;6.00;;;;;;;13.36;100.00;95885.84;5015339;28;103097;-61
2023/04/21 08:38:43;;;;;;;7.03;6.37;;;;;;;13.27;100.00;95884.84;5022339;28;102063;-64
2023/04/21 08:41:10;;;;;;;7.13;6.43;;;;;;;13.47;100.00;95888.16;5027697;28;105196;-62
2023/04/21 08:47:00;;;;;;;6.50;5.90;;;;;;;13.88;100.00;95893.91;5012875;28;101838;-62
2023/04/21 08:49:31;;;;;;;7.23;6.53;;;;;;;13.70;100.00;95898.13;5010678;28;102600;-63
2023/04/21 08:52:00;;;;;;;7.13;6.43;;;;;;;13.56;100.00;95901.69;5028072;28;105413;-63
2023/04/21 08:55:00;;;;;;;7.83;7.03;;;;;;;13.51;100.00;95891.88;5030434;27;102581;-63
2023/04/21 08:57:27;;;;;;;7.77;6.60;;;;;;;13.82;100.00;95897.72;5013922;28;102769;-63
2023/04/21 08:59:54;;;;;;;7.53;6.50;;;;;;;14.23;100.00;95897.03;4992700;28;101998;-63
2023/04/21 09:02:22;;;;;;;7.23;6.53;;;;;;;14.30;100.00;95899.38;5009219;28;105564;-63
2023/04/21 09:04:53;;;;;;;7.20;6.60;;;;;;;14.53;100.00;95901.25;5010043;28;102553;-64
2023/04/21 09:07:34;;;;;;;7.40;6.70;;;;;;;14.52;100.00;95900.47;5019738;28;101900;-63
2023/04/21 09:10:01;;;;;;;7.33;6.37;;;;;;;14.56;100.00;95900.69;5008798;28;103954;-64
2023/04/21 09:12:29;;;;;;;7.53;6.87;;;;;;;14.76;100.00;95900.41;5014166;28;105970;-63
2023/04/21 09:14:58;;;;;;;7.03;6.43;;;;;;;15.07;100.00;95901.59;5017355;28;101949;-63
2023/04/21 09:17:31;;;;;;;7.77;7.07;;;;;;;15.03;100.00;95895.22;5011026;28;105857;-63
2023/04/21 09:20:13;;;;;;;7.63;6.87;;;;;;;15.25;100.00;95892.75;4997596;28;101876;-62
2023/04/21 09:22:40;;;;;;;7.93;7.13;;;;;;;14.93;100.00;95895.38;5013449;28;102321;-62
2023/04/21 09:25:09;;;;;;;7.10;6.40;;;;;;;15.22;100.00;95894.16;5013288;28;102525;-62
2023/04/21 09:27:36;;;;;;;7.43;6.73;;;;;;;15.17;100.00;95886.19;5013472;28;102244;-62
2023/04/21 09:30:05;;;;;;;6.80;6.20;;;;;;;15.53;100.00;95878.41;5018992;28;102498;-62
2023/04/21 09:32:36;;;;;;;7.77;6.97;;;;;;;15.49;100.00;95888.91;5033121;27;102520;-62
2023/04/21 09:35:18;;;;;;;7.83;6.80;;;;;;;15.55;100.00;95886.94;5027367;27;101981;-62
2023/04/21 09:37:45;;;;;;;7.77;6.93;;;;;;;15.14;100.00;95885.94;5016198;28;102561;-63
2023/04/21 09:40:14;;;;;;;7.57;6.63;;;;;;;14.71;100.00;95881.75;5011977;28;102029;-62
2023/04/21 09:42:41;;;;;;;7.43;6.73;;;;;;;15.09;100.00;95883.38;5020859;28;103505;-61
2023/04/21 09:45:10;;;;;;;6.63;6.00;;;;;;;15.42;100.00;95882.34;5031220;27;102569;-61
2023/04/21 09:47:40;;;;;;;7.37;6.40;;;;;;;15.67;100.00;95877.34;5004793;28;102338;-61
2023/04/21 09:50:09;;;;;;;6.30;5.60;;;;;;;15.77;100.00;95876.38;5012858;28;105705;-60
2023/04/21 09:52:39;;;;;;;7.40;6.67;;;;;;;15.78;100.00;95881.44;5012399;28;104634;-60
2023/04/21 09:55:11;;;;;;;6.67;5.97;;;;;;;15.75;100.00;95881.25;5008292;28;102186;-61
2023/04/21 09:57:40;;;;;;;5.80;5.30;;;;;;;15.97;100.00;95878.72;5005932;28;102458;-61
2023/04/21 10:00:08;;;;;;;6.67;5.93;;;;;;;16.14;100.00;95878.91;5014795;28;105890;-61
2023/04/21 10:02:42;;;;;;;6.30;5.70;;;;;;;16.46;100.00;95873.50;5016099;28;102655;-61
2023/04/21 10:05:33;;;;;;;5.33;4.83;;;;;;;16.21;100.00;95884.69;5014390;28;105433;-61
2023/04/21 10:08:02;;;;;;;6.10;5.40;;;;;;;16.28;100.00;95887.75;5001454;28;102307;-61
2023/04/21 10:10:32;;;;;;;7.13;6.27;;;;;;;16.17;100.00;95889.03;5010389;28;105237;-61
2023/04/21 10:12:59;;;;;;;6.53;5.93;;;;;;;15.96;100.00;95879.81;5010617;28;105182;-61
2023/04/21 10:15:31;;;;;;;7.20;6.50;;;;;;;16.23;100.00;95882.47;4991817;28;101871;-61
2023/04/21 10:18:16;;;;;;;6.27;5.70;;;;;;;16.31;100.00;95884.50;5008756;28;102459;-61
2023/04/21 10:20:56;;;;;;;6.43;5.77;;;;;;;16.25;100.00;95885.69;4992272;28;103048;-61
2023/04/21 10:23:30;;;;;;;7.93;6.10;;;;;;;16.18;100.00;95874.56;5029534;28;101934;-61
2023/04/21 10:26:06;;;;;;;6.30;5.70;;;;;;;15.95;100.00;95875.50;5031108;28;105174;-61
2023/04/21 10:28:44;;;;;;;6.00;5.50;;;;;;;16.12;100.00;95876.53;5027177;28;102019;-62
2023/04/21 10:31:22;;;;;;;5.53;5.03;;;;;;;16.10;100.00;95868.00;5011198;28;103644;-60
2023/04/21 10:34:21;;;;;;;4.40;4.03;;;;;;;16.22;100.00;95859.44;5012519;28;101811;-66
2023/04/21 10:37:07;;;;;;;4.70;3.73;;;;;;;16.50;100.00;95861.03;5021046;28;101891;-60
2023/04/21 10:39:37;;;;;;;5.07;4.17;;;;;;;16.67;100.00;95853.97;5033011;27;102620;-60
2023/04/21 10:42:21;;;;;;;5.43;4.93;;;;;;;17.11;100.00;95856.72;5030838;28;105290;-59
2023/04/21 10:45:02;;;;;;;5.27;4.77;;;;;;;17.17;100.00;95849.38;5034968;28;101884;-59
2023/04/21 10:47:35;;;;;;;5.03;4.63;;;;;;;17.24;100.00;95850.53;5030806;28;105453;-60
2023/04/21 10:50:12;;;;;;;5.47;4.97;;;;;;;17.23;100.00;95848.91;5031424;28;101770;-59
2023/04/21 10:52:39;;;;;;;5.00;4.60;;;;;;;17.31;100.00;95847.41;5031287;28;104856;-60
2023/04/21 10:55:19;;;;;;;6.10;4.70;;;;;;;17.43;100.00;95853.84;5030609;28;105817;-64
2023/04/21 10:57:46;;;;;;;5.23;4.83;;;;;;;17.57;100.00;95853.78;5031385;28;102067;-59
2023/04/21 11:00:19;;;;;;;5.10;4.70;;;;;;;17.71;100.00;95847.22;5031115;28;104820;-59
2023/04/21 11:02:54;;;;;;;5.50;4.83;;;;;;;17.78;100.00;95838.72;5029836;28;105860;-59
2023/04/21 11:05:28;;;;;;;6.57;4.83;;;;;;;17.80;100.00;95837.31;5032524;27;101938;-59
2023/04/21 11:08:03;;;;;;;5.40;4.90;;;;;;;18.55;100.00;95831.78;5033701;28;105168;-59
2023/04/21 11:10:42;;;;;;;5.20;4.70;;;;;;;18.21;100.00;95837.81;5007531;28;101843;-59
2023/04/21 11:13:28;;;;;;;5.30;4.80;;;;;;;18.41;100.00;95826.50;5029459;28;104828;-59
2023/04/21 11:16:04;;;;;;;5.07;4.57;;;;;;;18.41;100.00;95820.31;5030292;28;105420;-59
2023/04/21 11:18:40;;;;;;;5.33;4.93;;;;;;;17.75;100.00;95828.56;5030876;28;101883;-59
2023/04/21 11:21:09;;;;;;;4.90;4.50;;;;;;;18.31;100.00;95820.59;5030923;28;105628;-59
2023/04/21 11:27:07;;;;;;;5.30;4.90;;;;;;;18.18;100.00;95821.50;5022439;27;102118;-59
2023/04/21 11:29:34;;;;;;;5.23;4.47;;;;;;;18.17;100.00;95814.53;5027950;28;105478;-59
2023/04/21 11:32:02;;;;;;;4.33;3.90;;;;;;;18.27;100.00;95814.25;5033635;28;105398;-59
2023/04/21 11:34:45;;;;;;;3.97;3.60;;;;;;;18.43;100.00;95813.50;5026831;28;105108;-59
2023/04/21 11:37:16;;;;;;;3.70;3.30;;;;;;;18.48;100.00;95820.69;5011247;28;103226;-59
2023/04/21 11:39:43;;;;;;;4.50;4.10;;;;;;;18.66;100.00;95822.28;5011595;28;101847;-59
2023/04/21 11:42:12;;;;;;;5.10;4.10;;;;;;;19.08;100.00;95824.22;5010945;28;102594;-59
2023/04/21 11:44:46;;;;;;;3.90;3.50;;;;;;;19.11;100.00;95810.91;5011169;28;103058;-59
2023/04/21 11:47:14;;;;;;;3.30;3.00;;;;;;;19.57;100.00;95805.63;5010165;28;101781;-59
2023/04/21 11:49:46;;;;;;;2.93;2.73;;;;;;;19.72;97.50;95805.13;5011649;28;102629;-59